createdAt,value
2019-03-12T00:01:58.127Z,97912.58
2019-03-12T00:04:28.744Z,97925.44
2019-03-12T00:06:58.726Z,97919.64
2019-03-12T00:09:28.837Z,97921.25
2019-03-12T00:11:59.187Z,97920.15
2019-03-12T00:14:29.166Z,97922.83
2019-03-12T00:16:59.235Z,97925.54
2019-03-12T00:19:30.577Z,97927.49
2019-03-12T00:22:00.773Z,97932.00
2019-03-12T00:24:31.181Z,97937.06
2019-03-12T00:27:01.043Z,97941.56
2019-03-12T00:29:31.674Z,97939.70
2019-03-12T00:32:02.227Z,97942.44
2019-03-12T00:34:32.489Z,97942.69
2019-03-12T00:37:02.669Z,97939.47
2019-03-12T00:39:32.722Z,97951.32
2019-03-12T00:42:02.833Z,97952.94
2019-03-12T00:44:33.023Z,97961.66
2019-03-12T00:47:03.155Z,97957.14
2019-03-12T00:49:33.629Z,97958.98
2019-03-12T00:52:03.809Z,97967.52
2019-03-12T00:54:36.180Z,97964.09
2019-03-12T00:57:06.369Z,97965.37
2019-03-12T00:59:36.305Z,97975.43
2019-03-12T01:02:06.440Z,97978.27
2019-03-12T01:04:36.420Z,97978.80
2019-03-12T01:07:06.209Z,97976.34
2019-03-12T01:09:36.044Z,97978.22
2019-03-12T01:12:06.394Z,97990.32
2019-03-12T01:14:36.332Z,97996.50
2019-03-12T01:17:06.526Z,97991.81
2019-03-12T01:19:36.480Z,97988.83
2019-03-12T01:22:06.847Z,98000.95
2019-03-12T01:24:37.061Z,98000.90
2019-03-12T01:27:07.161Z,98009.34
2019-03-12T01:29:37.323Z,98016.17
2019-03-12T01:32:07.305Z,98019.27
2019-03-12T01:34:37.556Z,98020.94
2019-03-12T01:37:07.581Z,98035.81
2019-03-12T01:39:37.882Z,98037.32
2019-03-12T01:42:08.070Z,98046.45
2019-03-12T01:44:38.387Z,98040.53
2019-03-12T01:47:08.274Z,98043.74
2019-03-12T01:49:38.211Z,98049.86
2019-03-12T01:52:08.388Z,98045.44
2019-03-12T01:54:38.537Z,98048.80
2019-03-12T01:57:08.544Z,98057.21
2019-03-12T01:59:38.517Z,98057.31
2019-03-12T02:02:08.848Z,98066.05
2019-03-12T02:04:38.816Z,98064.59
2019-03-12T02:07:08.695Z,98066.50
2019-03-12T02:09:38.571Z,98065.36
2019-03-12T02:12:08.594Z,98071.98
2019-03-12T02:14:38.763Z,98074.33
2019-03-12T02:17:09.325Z,98074.84
2019-03-12T02:19:39.464Z,98082.33
2019-03-12T02:22:10.686Z,98092.44
2019-03-12T02:24:52.012Z,98087.52
2019-03-12T02:27:12.834Z,98096.10
2019-03-12T02:29:43.670Z,98096.91
2019-03-12T02:32:13.946Z,98099.02
2019-03-12T02:34:44.407Z,98106.91
2019-03-12T02:37:14.822Z,98111.22
2019-03-12T02:39:44.981Z,98107.86
2019-03-12T02:42:14.934Z,98114.34
2019-03-12T02:44:44.844Z,98118.20
2019-03-12T02:47:14.818Z,98118.98
2019-03-12T02:49:44.839Z,98122.89
2019-03-12T02:52:15.120Z,98125.03
2019-03-12T02:54:45.322Z,98125.23
2019-03-12T02:57:15.384Z,98128.09
2019-03-12T02:59:46.103Z,98130.47
2019-03-12T03:02:16.275Z,98133.66
2019-03-12T03:04:46.643Z,98132.16
2019-03-12T03:07:42.645Z,98135.69
2019-03-12T03:10:14.550Z,98134.95
2019-03-12T03:12:45.647Z,98142.26
2019-03-12T03:15:17.690Z,98143.67
2019-03-12T03:17:47.919Z,98143.75
2019-03-12T03:20:18.039Z,98148.81
2019-03-12T03:22:48.509Z,98154.65
2019-03-12T03:25:18.556Z,98155.55
2019-03-12T03:27:48.902Z,98162.06
2019-03-12T03:30:20.850Z,98164.33
2019-03-12T03:32:50.932Z,98171.11
2019-03-12T03:35:21.172Z,98174.08
2019-03-12T03:37:51.356Z,98174.46
2019-03-12T03:40:21.609Z,98177.89
2019-03-12T03:42:52.831Z,98179.17
2019-03-12T03:45:22.860Z,98180.85
2019-03-12T03:47:53.192Z,98177.89
2019-03-12T03:50:24.748Z,98192.55
2019-03-12T03:52:55.111Z,98185.43
2019-03-12T03:55:25.357Z,98176.94
2019-03-12T03:57:55.569Z,98189.96
2019-03-12T04:00:25.964Z,98192.27
2019-03-12T04:02:55.937Z,98198.47
2019-03-12T04:05:26.338Z,98199.83
2019-03-12T04:07:56.594Z,98198.19
2019-03-12T04:10:26.538Z,98201.94
2019-03-12T04:12:57.150Z,98212.14
2019-03-12T04:15:27.196Z,98214.28
2019-03-12T04:17:58.376Z,98233.10
2019-03-12T04:20:28.752Z,98232.71
2019-03-12T04:22:58.886Z,98229.05
2019-03-12T04:25:29.403Z,98235.44
2019-03-12T04:27:59.629Z,98247.47
2019-03-12T04:30:30.016Z,98245.80
2019-03-12T04:33:00.757Z,98249.69
2019-03-12T04:35:31.381Z,98251.91
2019-03-12T04:38:01.601Z,98257.48
2019-03-12T04:40:31.842Z,98258.30
2019-03-12T04:43:02.271Z,98253.91
2019-03-12T04:45:32.557Z,98258.97
2019-03-12T04:48:03.032Z,98267.81
2019-03-12T04:50:33.674Z,98267.77
2019-03-12T04:53:05.425Z,98274.47
2019-03-12T04:55:36.274Z,98274.86
2019-03-12T04:58:06.887Z,98274.86
2019-03-12T05:00:37.225Z,98264.06
2019-03-12T05:03:08.781Z,98268.70
2019-03-12T05:05:39.550Z,98258.77
2019-03-12T05:08:10.125Z,98270.70
2019-03-12T05:10:40.771Z,98278.02
2019-03-12T05:13:12.063Z,98282.77
2019-03-12T05:15:42.488Z,98287.06
2019-03-12T05:18:13.871Z,98287.80
2019-03-12T05:20:44.419Z,98289.44
2019-03-12T05:23:14.994Z,98295.75
2019-03-12T05:25:46.040Z,98298.59
2019-03-12T05:28:16.984Z,98296.30
2019-03-12T05:30:47.587Z,98293.98
2019-03-12T05:33:18.369Z,98296.73
2019-03-12T05:35:48.865Z,98305.12
2019-03-12T05:38:21.510Z,98311.13
2019-03-12T05:40:52.039Z,98315.19
2019-03-12T05:43:22.856Z,98318.73
2019-03-12T05:45:53.374Z,98319.52
2019-03-12T05:48:25.237Z,98319.83
2019-03-12T05:50:58.634Z,98325.75
2019-03-12T05:53:52.713Z,98330.35
2019-03-12T05:56:24.260Z,98321.77
2019-03-12T05:58:56.526Z,98325.03
2019-03-12T06:01:30.909Z,98319.38
2019-03-12T06:04:06.649Z,98327.33
2019-03-12T06:06:40.550Z,98337.64
2019-03-12T06:09:11.673Z,98342.02
2019-03-12T06:11:52.671Z,98336.19
2019-03-12T06:14:25.443Z,98339.69
2019-03-12T06:16:55.995Z,98342.75
2019-03-12T06:19:28.113Z,98341.28
2019-03-12T06:21:58.694Z,98351.67
2019-03-12T06:24:34.256Z,98345.76
2019-03-12T06:27:06.314Z,98354.89
2019-03-12T06:29:39.882Z,98363.76
2019-03-12T06:32:40.957Z,98370.30
2019-03-12T06:35:22.352Z,98365.02
2019-03-12T06:38:10.787Z,98371.93
2019-03-12T06:40:59.899Z,98370.23
2019-03-12T06:43:51.201Z,98372.02
2019-03-12T06:46:46.077Z,98380.62
2019-03-12T06:49:39.684Z,98374.12
2019-03-12T06:52:46.757Z,98374.17
2019-03-12T06:55:41.275Z,98375.78
2019-03-12T06:58:28.491Z,98382.24
2019-03-12T07:01:26.237Z,98381.54
2019-03-12T07:04:38.953Z,98373.78
2019-03-12T07:07:20.718Z,98369.10
2019-03-12T07:10:20.967Z,98376.45
2019-03-12T07:13:11.710Z,98372.30
2019-03-12T07:15:49.072Z,98378.91
2019-03-12T07:18:39.131Z,98379.77
2019-03-12T07:21:24.730Z,98378.95
2019-03-12T07:24:29.248Z,98380.53
2019-03-12T07:27:34.471Z,98389.71
2019-03-12T07:30:17.498Z,98391.56
2019-03-12T07:33:16.585Z,98398.97
2019-03-12T07:36:06.149Z,98396.71
2019-03-12T07:38:54.107Z,98401.94
2019-03-12T07:41:42.641Z,98411.28
2019-03-12T07:44:44.005Z,98418.06
2019-03-12T07:47:35.587Z,98413.09
2019-03-12T07:50:35.150Z,98426.80
2019-03-12T07:53:24.058Z,98424.16
2019-03-12T07:56:09.205Z,98435.11
2019-03-12T07:58:57.257Z,98434.62
2019-03-12T08:02:03.655Z,98431.28
2019-03-12T08:04:52.260Z,98430.94
2019-03-12T08:07:57.117Z,98429.81
2019-03-12T08:10:50.025Z,98434.19
2019-03-12T08:13:41.086Z,98432.84
2019-03-12T08:16:32.548Z,98436.14
2019-03-12T08:19:24.049Z,98440.45
2019-03-12T08:22:18.848Z,98442.19
2019-03-12T08:24:55.961Z,98435.36
2019-03-12T08:27:45.956Z,98428.81
2019-03-12T08:31:05.258Z,98444.59
2019-03-12T08:33:55.388Z,98435.45
2019-03-12T08:36:57.744Z,98455.20
2019-03-12T08:39:51.710Z,98451.02
2019-03-12T08:42:54.813Z,98452.41
2019-03-12T08:45:38.987Z,98462.79
2019-03-12T08:48:45.952Z,98454.34
2019-03-12T08:51:51.115Z,98460.97
2019-03-12T08:54:30.726Z,98456.97
2019-03-12T08:57:06.716Z,98460.75
2019-03-12T08:59:56.904Z,98461.75
2019-03-12T09:02:50.278Z,98455.61
2019-03-12T09:05:47.585Z,98445.45
2019-03-12T09:08:40.030Z,98449.02
2019-03-12T09:11:34.002Z,98451.06
2019-03-12T09:14:26.592Z,98438.58
2019-03-12T09:17:18.333Z,98440.19
2019-03-12T09:20:12.111Z,98439.41
2019-03-12T09:22:51.991Z,98431.58
2019-03-12T09:25:40.035Z,98432.88
2019-03-12T09:28:19.868Z,98437.62
2019-03-12T09:31:15.404Z,98435.09
2019-03-12T09:34:19.588Z,98425.64
2019-03-12T09:37:12.134Z,98437.16
2019-03-12T09:40:01.309Z,98440.86
2019-03-12T09:42:53.783Z,98438.31
2019-03-12T09:45:49.272Z,98443.38
2019-03-12T09:48:51.023Z,98446.34
2019-03-12T09:51:25.592Z,98439.09
2019-03-12T09:54:15.651Z,98431.20
2019-03-12T09:56:53.634Z,98435.33
2019-03-12T09:59:46.912Z,98442.34
2019-03-12T10:02:54.749Z,98439.76
2019-03-12T10:05:50.334Z,98445.95
2019-03-12T10:08:42.401Z,98436.26
2019-03-12T10:11:34.978Z,98439.53
2019-03-12T10:14:30.432Z,98434.09
2019-03-12T10:17:19.546Z,98434.89
2019-03-12T10:20:03.260Z,98436.34
2019-03-12T10:22:42.504Z,98434.80
2019-03-12T10:25:30.711Z,98439.88
2019-03-12T10:28:21.119Z,98435.20
2019-03-12T10:31:23.012Z,98425.98
2019-03-12T10:34:11.482Z,98431.23
2019-03-12T10:37:12.325Z,98432.77
2019-03-12T10:40:24.314Z,98442.52
2019-03-12T10:43:00.081Z,98435.14
2019-03-12T10:45:55.290Z,98433.41
2019-03-12T10:48:24.927Z,98438.15
2019-03-12T10:50:55.854Z,98447.05
2019-03-12T10:53:27.400Z,98438.71
2019-03-12T10:56:02.317Z,98438.17
2019-03-12T10:58:33.109Z,98436.56
2019-03-12T11:01:04.017Z,98440.77
2019-03-12T11:03:34.210Z,98439.67
2019-03-12T11:06:05.204Z,98445.45
2019-03-12T11:08:35.384Z,98444.27
2019-03-12T11:11:06.368Z,98446.41
2019-03-12T11:13:37.016Z,98444.13
2019-03-12T11:16:08.711Z,98449.25
2019-03-12T11:18:39.958Z,98433.66
2019-03-12T11:21:10.320Z,98434.92
2019-03-12T11:24:05.498Z,98429.80
2019-03-12T11:26:42.591Z,98434.45
2019-03-12T11:29:41.505Z,98436.50
2019-03-12T11:32:15.812Z,98439.66
2019-03-12T11:34:51.102Z,98434.84
2019-03-12T11:37:27.321Z,98428.03
2019-03-12T11:39:58.445Z,98432.59
2019-03-12T11:42:29.504Z,98434.42
2019-03-12T11:45:00.044Z,98429.90
2019-03-12T11:47:30.864Z,98433.23
2019-03-12T11:50:01.871Z,98435.84
2019-03-12T11:52:33.567Z,98444.78
2019-03-12T11:55:04.565Z,98438.41
2019-03-12T11:57:35.228Z,98438.58
2019-03-12T12:00:08.805Z,98437.69
2019-03-12T12:02:39.081Z,98434.91
2019-03-12T12:05:10.020Z,98429.91
2019-03-12T12:07:40.281Z,98426.27
2019-03-12T12:10:11.589Z,98431.48
2019-03-12T12:12:41.639Z,98425.82
2019-03-12T12:15:11.671Z,98422.00
2019-03-12T12:17:41.964Z,98425.58
2019-03-12T12:20:12.176Z,98426.20
2019-03-12T12:22:42.033Z,98436.30
2019-03-12T12:25:13.249Z,98428.77
2019-03-12T12:27:43.597Z,98425.48
2019-03-12T12:30:16.742Z,98435.05
2019-03-12T12:32:47.423Z,98430.94
2019-03-12T12:35:17.820Z,98430.75
2019-03-12T12:37:47.800Z,98439.53
2019-03-12T12:40:18.245Z,98441.77
2019-03-12T12:42:48.951Z,98430.63
2019-03-12T12:45:20.421Z,98448.33
2019-03-12T12:47:50.186Z,98455.84
2019-03-12T12:50:20.646Z,98459.03
2019-03-12T12:52:51.433Z,98453.34
2019-03-12T12:55:22.144Z,98449.30
2019-03-12T12:57:52.950Z,98450.84
2019-03-12T13:00:23.663Z,98460.55
2019-03-12T13:02:53.714Z,98456.16
2019-03-12T13:05:24.062Z,98459.33
2019-03-12T13:07:54.531Z,98447.25
2019-03-12T13:10:24.763Z,98448.06
2019-03-12T13:12:55.099Z,98449.11
2019-03-12T13:15:25.751Z,98439.75
2019-03-12T13:17:57.718Z,98447.42
2019-03-12T13:20:33.371Z,98449.28
2019-03-12T13:23:04.650Z,98453.20
2019-03-12T13:25:35.676Z,98452.50
2019-03-12T13:28:05.815Z,98450.28
2019-03-12T13:30:36.310Z,98442.19
2019-03-12T13:33:07.091Z,98452.24
2019-03-12T13:35:37.764Z,98447.22
2019-03-12T13:38:11.313Z,98457.55
2019-03-12T13:40:42.061Z,98446.11
2019-03-12T13:43:13.101Z,98450.56
2019-03-12T13:45:43.548Z,98444.91
2019-03-12T13:48:13.923Z,98445.31
2019-03-12T13:50:44.631Z,98442.47
2019-03-12T13:53:15.048Z,98451.94
2019-03-12T13:55:45.438Z,98452.95
2019-03-12T13:58:17.068Z,98457.69
2019-03-12T14:00:54.690Z,98461.34
2019-03-12T14:03:26.308Z,98463.69
2019-03-12T14:05:56.744Z,98460.53
2019-03-12T14:08:26.947Z,98467.56
2019-03-12T14:10:56.952Z,98462.15
2019-03-12T14:13:27.439Z,98468.48
2019-03-12T14:15:57.628Z,98465.02
2019-03-12T14:18:28.161Z,98463.63
2019-03-12T14:21:04.364Z,98474.39
2019-03-12T14:23:40.593Z,98475.11
2019-03-12T14:26:13.109Z,98479.38
2019-03-12T14:28:43.519Z,98473.03
2019-03-12T14:31:13.688Z,98473.61
2019-03-12T14:33:44.125Z,98480.66
2019-03-12T14:36:15.003Z,98476.61
2019-03-12T14:38:45.182Z,98472.62
2019-03-12T14:41:15.528Z,98475.27
2019-03-12T14:43:45.729Z,98474.63
2019-03-12T14:46:15.794Z,98486.30
2019-03-12T14:48:48.496Z,98484.36
2019-03-12T14:51:54.829Z,98489.08
2019-03-12T14:54:25.607Z,98483.91
2019-03-12T14:56:55.815Z,98488.03
2019-03-12T14:59:26.320Z,98489.18
2019-03-12T15:01:57.278Z,98495.12
2019-03-12T15:04:27.709Z,98495.01
2019-03-12T15:06:58.073Z,98504.27
2019-03-12T15:09:28.035Z,98505.76
2019-03-12T15:11:58.518Z,98510.84
2019-03-12T15:14:29.254Z,98518.05
2019-03-12T15:16:59.870Z,98535.59
2019-03-12T15:19:29.812Z,98532.44
2019-03-12T15:22:00.976Z,98543.78
2019-03-12T15:24:31.074Z,98548.88
2019-03-12T15:27:02.351Z,98544.94
2019-03-12T15:29:33.217Z,98557.99
2019-03-12T15:32:04.762Z,98554.16
2019-03-12T15:34:35.415Z,98556.08
2019-03-12T15:37:05.541Z,98556.27
2019-03-12T15:39:35.682Z,98558.30
2019-03-12T15:42:06.145Z,98560.37
2019-03-12T15:44:36.596Z,98562.72
2019-03-12T15:47:08.787Z,98563.28
2019-03-12T15:49:42.837Z,98563.80
2019-03-12T15:52:11.358Z,98565.22
2019-03-12T15:54:41.413Z,98569.25
2019-03-12T15:57:11.358Z,98574.19
2019-03-12T15:59:41.480Z,98577.56
2019-03-12T16:02:11.705Z,98577.02
2019-03-12T16:04:42.652Z,98580.34
2019-03-12T16:07:13.892Z,98575.93
2019-03-12T16:09:44.237Z,98584.72
2019-03-12T16:12:14.777Z,98589.66
2019-03-12T16:14:45.138Z,98590.35
2019-03-12T16:17:15.557Z,98594.48
2019-03-12T16:19:46.194Z,98593.38
2019-03-12T16:22:16.291Z,98588.87
2019-03-12T16:24:46.619Z,98592.52
2019-03-12T16:27:16.618Z,98596.44
2019-03-12T16:29:48.455Z,98597.41
2019-03-12T16:32:19.221Z,98593.62
2019-03-12T16:34:50.961Z,98596.76
2019-03-12T16:37:25.830Z,98594.75
2019-03-12T16:39:57.405Z,98596.96
2019-03-12T16:42:34.907Z,98601.45
2019-03-12T16:45:06.210Z,98600.67
2019-03-12T16:47:39.311Z,98599.81
2019-03-12T16:50:09.544Z,98601.56
2019-03-12T16:52:43.553Z,98602.94
2019-03-12T16:55:24.590Z,98609.44
2019-03-12T16:57:58.462Z,98607.43
2019-03-12T17:00:33.408Z,98613.89
2019-03-12T17:03:03.804Z,98617.66
2019-03-12T17:05:34.637Z,98616.38
2019-03-12T17:08:12.703Z,98621.09
2019-03-12T17:10:54.817Z,98621.12
2019-03-12T17:13:19.738Z,98615.61
2019-03-12T17:15:54.426Z,98622.04
2019-03-12T17:18:24.992Z,98627.61
2019-03-12T17:20:55.981Z,98621.52
2019-03-12T17:23:26.504Z,98625.28
2019-03-12T17:25:56.771Z,98628.77
2019-03-12T17:28:26.915Z,98629.23
2019-03-12T17:30:57.406Z,98635.23
2019-03-12T17:33:28.078Z,98639.86
2019-03-12T17:35:58.644Z,98643.62
2019-03-12T17:38:36.609Z,98637.02
2019-03-12T17:41:00.750Z,98642.47
2019-03-12T17:43:31.597Z,98641.02
2019-03-12T17:46:01.736Z,98649.39
2019-03-12T17:48:32.134Z,98645.30
2019-03-12T17:51:02.042Z,98650.20
2019-03-12T17:53:32.828Z,98654.36
2019-03-12T17:56:05.450Z,98658.55
2019-03-12T17:58:37.067Z,98661.91
2019-03-12T18:01:07.364Z,98657.69
2019-03-12T18:03:37.211Z,98656.07
2019-03-12T18:06:07.227Z,98658.72
2019-03-12T18:08:37.393Z,98662.22
2019-03-12T18:11:07.746Z,98658.82
2019-03-12T18:13:37.883Z,98667.37
2019-03-12T18:16:08.146Z,98667.91
2019-03-12T18:18:41.786Z,98670.05
2019-03-12T18:21:13.770Z,98664.44
2019-03-12T18:23:44.526Z,98662.25
2019-03-12T18:26:14.970Z,98666.19
2019-03-12T18:28:44.977Z,98664.11
2019-03-12T18:31:15.061Z,98667.64
2019-03-12T18:33:45.504Z,98661.70
2019-03-12T18:36:15.768Z,98660.09
2019-03-12T18:38:46.030Z,98664.05
2019-03-12T18:41:16.138Z,98665.90
2019-03-12T18:43:46.246Z,98666.06
2019-03-12T18:46:16.998Z,98665.77
2019-03-12T18:48:47.465Z,98668.39
2019-03-12T18:51:17.596Z,98675.75
2019-03-12T18:53:48.423Z,98674.47
2019-03-12T18:56:18.582Z,98676.55
2019-03-12T18:58:48.847Z,98677.80
2019-03-12T19:01:18.856Z,98684.23
2019-03-12T19:03:49.866Z,98688.09
2019-03-12T19:06:20.189Z,98679.48
2019-03-12T19:08:50.733Z,98678.69
2019-03-12T19:11:20.914Z,98686.41
2019-03-12T19:13:51.174Z,98682.62
2019-03-12T19:16:21.943Z,98690.00
2019-03-12T19:18:52.702Z,98690.03
2019-03-12T19:21:23.121Z,98679.31
2019-03-12T19:23:53.377Z,98680.53
2019-03-12T19:26:23.606Z,98685.55
2019-03-12T19:28:57.008Z,98679.88
2019-03-12T19:31:35.562Z,98683.39
2019-03-12T19:34:12.458Z,98683.39
2019-03-12T19:36:42.824Z,98681.97
2019-03-12T19:39:15.549Z,98680.05
2019-03-12T19:41:45.806Z,98681.17
2019-03-12T19:44:16.555Z,98672.45
2019-03-12T19:46:48.122Z,98674.10
2019-03-12T19:49:18.261Z,98668.52
2019-03-12T19:51:49.431Z,98672.74
2019-03-12T19:54:20.550Z,98673.53
2019-03-12T19:56:50.680Z,98676.57
2019-03-12T19:59:20.752Z,98670.17
2019-03-12T20:01:53.230Z,98676.67
2019-03-12T20:04:23.351Z,98674.63
2019-03-12T20:06:53.262Z,98673.84
2019-03-12T20:09:44.524Z,98685.92
2019-03-12T20:12:44.088Z,98685.96
2019-03-12T20:15:45.206Z,98682.45
2019-03-12T20:18:49.869Z,98680.74
2019-03-12T20:21:54.795Z,98686.22
2019-03-12T20:25:03.797Z,98684.44
2019-03-12T20:28:44.063Z,98682.22
2019-03-12T20:31:54.833Z,98674.92
2019-03-12T20:35:09.109Z,98678.42
2019-03-12T20:38:14.887Z,98675.20
2019-03-12T20:41:21.922Z,98675.80
2019-03-12T20:44:32.739Z,98678.11
2019-03-12T20:47:59.201Z,98675.23
2019-03-12T20:51:05.221Z,98672.76
2019-03-12T20:54:11.629Z,98675.89
2019-03-12T20:57:22.311Z,98675.72
2019-03-12T21:00:35.579Z,98675.05
2019-03-12T21:03:57.663Z,98676.95
2019-03-12T21:07:13.832Z,98678.95
2019-03-12T21:10:33.503Z,98678.21
2019-03-12T21:13:49.808Z,98679.16
2019-03-12T21:17:06.633Z,98679.34
2019-03-12T21:20:14.058Z,98683.40
2019-03-12T21:23:30.764Z,98681.86
2019-03-12T21:26:42.048Z,98685.91
2019-03-12T21:29:50.943Z,98676.28
2019-03-12T21:32:21.121Z,98678.61
2019-03-12T21:34:51.161Z,98679.62
2019-03-12T21:37:21.337Z,98676.34
2019-03-12T21:39:55.805Z,98673.02
2019-03-12T21:42:25.379Z,98672.69
2019-03-12T21:44:55.396Z,98675.73
2019-03-12T21:47:26.530Z,98674.91
2019-03-12T21:49:56.435Z,98681.75
2019-03-12T21:52:26.339Z,98673.27
2019-03-12T21:54:56.274Z,98671.64
2019-03-12T21:57:26.329Z,98672.55
2019-03-12T21:59:56.929Z,98673.85
2019-03-12T22:02:27.047Z,98672.19
2019-03-12T22:04:57.396Z,98674.38
2019-03-12T22:07:27.305Z,98677.40
2019-03-12T22:09:57.061Z,98677.88
2019-03-12T22:12:27.037Z,98674.42
2019-03-12T22:14:57.428Z,98675.69
2019-03-12T22:17:27.400Z,98682.99
2019-03-12T22:19:57.410Z,98682.11
2019-03-12T22:22:32.032Z,98684.17
2019-03-12T22:25:01.583Z,98695.20
2019-03-12T22:27:31.974Z,98691.27
2019-03-12T22:30:01.730Z,98691.14
2019-03-12T22:32:31.811Z,98696.16
2019-03-12T22:35:01.974Z,98691.61
2019-03-12T22:37:32.089Z,98693.47
2019-03-12T22:40:02.079Z,98687.91
2019-03-12T22:42:32.653Z,98692.65
2019-03-12T22:45:02.464Z,98690.61
2019-03-12T22:47:33.140Z,98689.97
2019-03-12T22:50:02.970Z,98697.63
2019-03-12T22:52:33.193Z,98696.80
2019-03-12T22:55:04.134Z,98705.47
2019-03-12T22:57:34.936Z,98701.30
2019-03-12T23:00:05.691Z,98699.28
2019-03-12T23:02:35.656Z,98698.94
2019-03-12T23:05:05.796Z,98696.45
2019-03-12T23:07:35.762Z,98696.91
2019-03-12T23:10:06.040Z,98695.59
2019-03-12T23:12:35.851Z,98696.82
2019-03-12T23:15:07.003Z,98701.45
2019-03-12T23:17:37.108Z,98689.87
2019-03-12T23:20:09.006Z,98689.94
2019-03-12T23:22:38.918Z,98686.96
2019-03-12T23:25:09.839Z,98685.42
2019-03-12T23:27:40.308Z,98696.11
2019-03-12T23:30:12.134Z,98683.16
2019-03-12T23:32:42.257Z,98684.73
2019-03-12T23:35:12.898Z,98686.75
2019-03-12T23:37:43.262Z,98688.41
2019-03-12T23:40:13.363Z,98686.69
2019-03-12T23:42:43.318Z,98686.42
2019-03-12T23:45:13.770Z,98677.13
2019-03-12T23:47:43.757Z,98681.02
2019-03-12T23:50:13.788Z,98678.51
2019-03-12T23:52:44.115Z,98677.71
2019-03-12T23:55:14.814Z,98678.26
2019-03-12T23:57:44.750Z,98674.83
